Time;durP1;ratioP1;P1;durP2;ratioP2;P2;SDS_P1;SDS_P2;PMS_P1;PMS_P2;Temp;Humidity;BMP_temperature;BMP_pressure;BME280_temperature;BME280_humidity;BME280_pressure;Samples;Min_cycle;Max_cycle;Signal;HPM_P1;HPM_P2
2020/05/01 00:00:22;;;;;;;1.1;0.8;;;;;;;8.96;100;950.6512;;;;
2020/05/01 00:02:47;;;;;;;1.3;0.8;;;;;;;8.97;100;950.6472;;;;
2020/05/01 00:05:12;;;;;;;1.1;0.9;;;;;;;9;100;950.5728;;;;
2020/05/01 00:07:37;;;;;;;1.2;0.8;;;;;;;8.99;100;950.606;;;;
2020/05/01 00:10:02;;;;;;;1.3;0.8;;;;;;;9.06;100;950.5814;;;;
2020/05/01 00:12:27;;;;;;;1;0.9;;;;;;;9.02;100;950.6356;;;;
2020/05/01 00:14:53;;;;;;;1.3;1;;;;;;;9.02;100;950.5893;;;;
2020/05/01 00:17:18;;;;;;;1.4;1;;;;;;;9.06;100;950.6083;;;;
2020/05/01 00:19:43;;;;;;;1.1;0.9;;;;;;;8.99;100;950.615;;;;
2020/05/01 00:22:08;;;;;;;1;0.9;;;;;;;8.97;100;950.6057;;;;
2020/05/01 00:24:33;;;;;;;2.1;1.1;;;;;;;8.94;100;950.5793;;;;
2020/05/01 00:26:58;;;;;;;1.6;1;;;;;;;8.96;100;950.5732;;;;
2020/05/01 00:29:23;;;;;;;1.6;1.1;;;;;;;8.89;100;950.5555;;;;
2020/05/01 00:31:48;;;;;;;1.4;1;;;;;;;8.93;100;950.5932;;;;
2020/05/01 00:34:13;;;;;;;1.2;1;;;;;;;8.91;100;950.6376;;;;
2020/05/01 00:36:38;;;;;;;1.2;1.1;;;;;;;8.91;100;950.5531;;;;
2020/05/01 00:39:04;;;;;;;1.2;1;;;;;;;8.96;100;950.5594;;;;
2020/05/01 00:41:29;;;;;;;1.4;1;;;;;;;8.89;100;950.5734;;;;
2020/05/01 00:43:55;;;;;;;1.7;1;;;;;;;8.91;100;950.5623;;;;
2020/05/01 00:46:20;;;;;;;1.3;0.9;;;;;;;8.93;100;950.4941;;;;
2020/05/01 00:48:46;;;;;;;1.4;0.9;;;;;;;8.88;100;950.5032;;;;
2020/05/01 00:51:11;;;;;;;1.5;1.1;;;;;;;8.89;100;950.5953;;;;
2020/05/01 00:53:38;;;;;;;1.7;1;;;;;;;8.85;100;950.502;;;;
2020/05/01 00:56:03;;;;;;;1.7;1.2;;;;;;;8.91;100;950.467;;;;
2020/05/01 00:58:28;;;;;;;2.5;1.1;;;;;;;8.84;100;950.5192;;;;
2020/05/01 01:01:00;;;;;;;1.5;1.1;;;;;;;8.77;100;950.4998;;;;
2020/05/01 01:03:28;;;;;;;1.7;1;;;;;;;8.74;100;950.4905;;;;
2020/05/01 01:05:57;;;;;;;1.3;1;;;;;;;8.79;100;950.4242;;;;
2020/05/01 01:08:25;;;;;;;1.2;1;;;;;;;8.84;100;950.4192;;;;
2020/05/01 01:10:50;;;;;;;1.2;0.9;;;;;;;8.85;100;950.4663;;;;
2020/05/01 01:13:15;;;;;;;1.3;0.8;;;;;;;8.83;100;950.4314;;;;
2020/05/01 01:15:42;;;;;;;1.2;1;;;;;;;8.77;100;950.4202;;;;
2020/05/01 01:18:07;;;;;;;1.4;1;;;;;;;8.8;100;950.418;;;;
2020/05/01 01:20:35;;;;;;;1.1;1;;;;;;;8.76;100;950.4077;;;;
2020/05/01 01:23:00;;;;;;;1.2;1;;;;;;;8.63;100;950.4258;;;;
2020/05/01 01:25:25;;;;;;;1.3;1.2;;;;;;;8.72;100;950.4228;;;;
2020/05/01 01:27:51;;;;;;;1.1;1;;;;;;;8.8;100;950.4254;;;;
2020/05/01 01:30:17;;;;;;;1.4;0.9;;;;;;;8.76;100;950.3585;;;;
2020/05/01 01:32:41;;;;;;;1.2;1;;;;;;;8.7;100;950.39;;;;
2020/05/01 01:35:07;;;;;;;1.6;1;;;;;;;8.71;100;950.3611;;;;
2020/05/01 01:37:31;;;;;;;2.2;0.9;;;;;;;8.78;100;950.3333;;;;
2020/05/01 01:39:56;;;;;;;1.9;1;;;;;;;8.72;100;950.2806;;;;
2020/05/01 01:42:21;;;;;;;1;0.9;;;;;;;8.7;100;950.2747;;;;
2020/05/01 01:44:46;;;;;;;0.8;0.8;;;;;;;8.67;100;950.3409;;;;
2020/05/01 01:47:11;;;;;;;2.2;0.9;;;;;;;8.57;100;950.3513;;;;
2020/05/01 01:49:37;;;;;;;1.5;0.8;;;;;;;8.65;100;950.2816;;;;
2020/05/01 01:52:03;;;;;;;1.1;0.9;;;;;;;8.71;100;950.331;;;;
2020/05/01 01:54:28;;;;;;;1.4;0.9;;;;;;;8.64;100;950.2772;;;;
2020/05/01 01:56:53;;;;;;;1.9;1;;;;;;;8.73;100;950.3131;;;;
2020/05/01 01:59:18;;;;;;;2;0.9;;;;;;;8.74;100;950.229;;;;
2020/05/01 02:01:43;;;;;;;1.4;0.9;;;;;;;8.61;100;950.2046;;;;
2020/05/01 02:04:08;;;;;;;1.6;1;;;;;;;8.54;100;950.2729;;;;
2020/05/01 02:08:23;;;;;;;0.9;0.8;;;;;;;8.6;100;950.1859;;;;
2020/05/01 02:10:48;;;;;;;1;0.9;;;;;;;8.65;100;950.1947;;;;
2020/05/01 02:13:13;;;;;;;1.2;0.7;;;;;;;8.6;100;950.1202;;;;
2020/05/01 02:15:38;;;;;;;1.4;0.9;;;;;;;8.51;100;950.1127;;;;
2020/05/01 02:18:04;;;;;;;2.4;0.9;;;;;;;8.54;100;950.0286;;;;
2020/05/01 02:20:29;;;;;;;1.2;0.8;;;;;;;8.46;100;950.1177;;;;
2020/05/01 02:22:54;;;;;;;1.4;0.9;;;;;;;8.55;100;950.0652;;;;
2020/05/01 02:25:24;;;;;;;1.5;0.8;;;;;;;8.42;100;950.0451;;;;
2020/05/01 02:27:58;;;;;;;1.5;0.8;;;;;;;8.4;100;950.0927;;;;
2020/05/01 02:32:46;;;;;;;1.2;0.8;;;;;;;8.51;100;950.0436;;;;
2020/05/01 02:35:27;;;;;;;3.7;1.1;;;;;;;8.51;100;949.9836;;;;
2020/05/01 02:37:39;;;;;;;1.3;0.7;;;;;;;8.41;100;950.028;;;;
2020/05/01 02:40:29;;;;;;;1.7;0.8;;;;;;;8.41;100;950.045;;;;
2020/05/01 02:45:01;;;;;;;0.9;0.6;;;;;;;8.47;99.96289;950.0051;;;;
2020/05/01 02:47:19;;;;;;;1.1;0.7;;;;;;;8.45;100;950.0089;;;;
2020/05/01 02:49:48;;;;;;;1.9;0.7;;;;;;;8.39;99.29102;950.0082;;;;
2020/05/01 02:54:48;;;;;;;1.2;0.7;;;;;;;8.35;98.92969;949.9718;;;;
2020/05/01 02:59:55;;;;;;;1.7;0.7;;;;;;;8.32;98.95605;949.8903;;;;
2020/05/01 03:01:41;;;;;;;1.4;0.7;;;;;;;8.32;98.66992;949.8951;;;;
2020/05/01 03:04:03;;;;;;;1.7;0.9;;;;;;;8.27;99.33301;949.9106;;;;
2020/05/01 03:06:30;;;;;;;1.7;0.7;;;;;;;8.27;99.35547;949.957;;;;
2020/05/01 03:08:56;;;;;;;1.6;0.8;;;;;;;8.18;99.07422;949.882;;;;
2020/05/01 03:11:21;;;;;;;1.2;0.7;;;;;;;8.23;99.82813;949.8803;;;;
2020/05/01 03:13:46;;;;;;;2.3;0.8;;;;;;;8.21;100;949.9108;;;;
2020/05/01 03:16:13;;;;;;;2;0.7;;;;;;;8.21;100;949.9205;;;;
2020/05/01 03:18:38;;;;;;;1.6;0.8;;;;;;;8.28;100;949.9164;;;;
2020/05/01 03:21:04;;;;;;;1.7;0.8;;;;;;;8.31;100;949.9476;;;;
2020/05/01 03:23:29;;;;;;;1.8;0.9;;;;;;;8.24;100;949.9858;;;;
2020/05/01 03:25:55;;;;;;;1.3;0.9;;;;;;;8.18;99.79297;949.9607;;;;
2020/05/01 03:28:20;;;;;;;1.4;0.9;;;;;;;8.23;100;949.9542;;;;
2020/05/01 03:30:46;;;;;;;2.2;0.9;;;;;;;8.17;99.07031;949.9469;;;;
2020/05/01 03:33:11;;;;;;;1.4;0.8;;;;;;;8.23;100;949.8755;;;;
2020/05/01 03:35:36;;;;;;;3;1;;;;;;;8.26;100;949.9261;;;;
2020/05/01 03:38:02;;;;;;;1.8;1;;;;;;;8.06;99.25098;949.8675;;;;
2020/05/01 03:40:27;;;;;;;1.8;0.9;;;;;;;8.03;99.94043;949.8273;;;;
2020/05/01 03:42:52;;;;;;;1.8;1;;;;;;;8.1;100;949.8614;;;;
2020/05/01 03:45:18;;;;;;;2.4;1;;;;;;;8.15;100;949.8922;;;;
2020/05/01 03:47:44;;;;;;;3.3;1;;;;;;;8.13;100;949.8894;;;;
2020/05/01 03:50:09;;;;;;;2.6;1.1;;;;;;;8.02;99.54004;949.8923;;;;
2020/05/01 03:52:34;;;;;;;2.9;1;;;;;;;8.16;100;949.867;;;;
2020/05/01 03:55:01;;;;;;;2.1;1;;;;;;;8.11;99.7666;949.8431;;;;
2020/05/01 03:57:26;;;;;;;2.4;1;;;;;;;8.09;100;949.8954;;;;
2020/05/01 03:59:51;;;;;;;2.3;0.9;;;;;;;7.99;99.69238;949.8854;;;;
2020/05/01 04:02:26;;;;;;;1.7;1;;;;;;;7.98;100;949.8566;;;;
2020/05/01 04:04:51;;;;;;;1.5;0.9;;;;;;;7.99;100;949.93;;;;
2020/05/01 04:07:17;;;;;;;1.8;1;;;;;;;7.89;99.74023;949.8976;;;;
2020/05/01 04:09:42;;;;;;;2;0.9;;;;;;;7.91;98.88379;949.9175;;;;
2020/05/01 04:12:07;;;;;;;2.4;1;;;;;;;7.95;99.05469;949.9601;;;;
2020/05/01 04:14:32;;;;;;;2.9;1.1;;;;;;;7.86;97.75293;949.9354;;;;
2020/05/01 04:16:57;;;;;;;2.1;0.8;;;;;;;7.92;98.24805;949.9581;;;;
2020/05/01 04:19:22;;;;;;;2.1;1.2;;;;;;;7.99;98.04492;949.9771;;;;
2020/05/01 04:21:47;;;;;;;3.1;1.1;;;;;;;7.9;98.24121;950.07;;;;
2020/05/01 04:24:12;;;;;;;2.5;1;;;;;;;7.98;98.36328;950.152;;;;
2020/05/01 04:26:51;;;;;;;1.9;0.9;;;;;;;7.97;97.74316;950.1909;;;;
2020/05/01 04:29:10;;;;;;;1.9;0.9;;;;;;;8.06;98.4043;950.2245;;;;
2020/05/01 04:31:41;;;;;;;2.1;1;;;;;;;8.03;97.17383;950.1641;;;;
2020/05/01 04:34:00;;;;;;;2.1;0.9;;;;;;;8.18;97.5957;950.1579;;;;
2020/05/01 04:36:26;;;;;;;1.5;0.9;;;;;;;8.15;97.01758;950.0829;;;;
2020/05/01 04:38:51;;;;;;;1.8;0.8;;;;;;;8.14;95.98535;950.0325;;;;
2020/05/01 04:41:17;;;;;;;2;0.9;;;;;;;8.24;95.9502;950.045;;;;
2020/05/01 04:43:42;;;;;;;2.7;1;;;;;;;8.32;95.5332;950.1395;;;;
2020/05/01 04:46:14;;;;;;;2.7;0.9;;;;;;;8.32;95.58984;950.0997;;;;
2020/05/01 04:48:37;;;;;;;3.4;1.1;;;;;;;8.4;95.03516;950.0927;;;;
2020/05/01 04:51:01;;;;;;;1.9;0.9;;;;;;;8.51;94.85449;950.1038;;;;
2020/05/01 04:53:29;;;;;;;4;1.1;;;;;;;8.51;93.60254;950.0997;;;;
2020/05/01 04:55:47;;;;;;;3.3;1.2;;;;;;;8.59;93.55273;950.1819;;;;
2020/05/01 04:58:13;;;;;;;3.1;1.1;;;;;;;8.6;93.41992;950.1381;;;;
2020/05/01 05:03:04;;;;;;;2.7;1;;;;;;;8.71;94.02734;950.1361;;;;
2020/05/01 05:05:29;;;;;;;2.4;1;;;;;;;8.64;93.7002;950.1847;;;;
2020/05/01 05:07:55;;;;;;;2.1;0.8;;;;;;;8.67;94.11133;950.191;;;;
2020/05/01 05:10:20;;;;;;;2.4;1.1;;;;;;;8.69;93.76953;950.1838;;;;
2020/05/01 05:12:46;;;;;;;4;1.2;;;;;;;8.79;93.76758;950.1238;;;;
2020/05/01 05:15:11;;;;;;;3.3;1.1;;;;;;;8.84;93.52734;950.1577;;;;
2020/05/01 05:17:38;;;;;;;2.5;1;;;;;;;9;93.84961;950.2022;;;;
2020/05/01 05:20:03;;;;;;;3.9;1;;;;;;;9.06;93.50488;950.2572;;;;
2020/05/01 05:22:28;;;;;;;2.2;0.9;;;;;;;9.11;93.125;950.2074;;;;
2020/05/01 05:24:53;;;;;;;3.1;0.8;;;;;;;9.2;92.18262;950.2391;;;;
2020/05/01 05:27:20;;;;;;;3.5;1;;;;;;;9.27;91.92285;950.283;;;;
2020/05/01 05:29:46;;;;;;;11;6.2;;;;;;;9.4;91.7793;950.3596;;;;
2020/05/01 05:32:11;;;;;;;4.5;1.5;;;;;;;9.48;90.42773;950.3691;;;;
2020/05/01 05:34:36;;;;;;;3.2;1;;;;;;;9.53;90.47168;950.411;;;;
2020/05/01 05:37:03;;;;;;;3.3;1.1;;;;;;;9.6;89.85742;950.3898;;;;
2020/05/01 05:39:28;;;;;;;2.7;1;;;;;;;9.65;89.54492;950.3607;;;;
2020/05/01 05:41:54;;;;;;;2.5;1;;;;;;;9.8;90.16406;950.33;;;;
2020/05/01 05:44:19;;;;;;;3.4;1.1;;;;;;;9.81;89.13086;950.3544;;;;
2020/05/01 05:46:45;;;;;;;2.7;1.1;;;;;;;9.89;88.82715;950.3566;;;;
2020/05/01 05:49:10;;;;;;;3.7;0.9;;;;;;;9.9;89.11426;950.3248;;;;
2020/05/01 05:51:36;;;;;;;3.1;1;;;;;;;9.93;88.62793;950.3828;;;;
2020/05/01 05:54:01;;;;;;;3;1.1;;;;;;;9.94;88.76758;950.3514;;;;
2020/05/01 05:56:27;;;;;;;3.4;1.1;;;;;;;;;;;;;
2020/05/01 05:58:53;;;;;;;2.7;1.1;;;;;;;;;;;;;
2020/05/01 06:01:19;;;;;;;2.4;0.9;;;;;;;;;;;;;
2020/05/01 06:03:54;;;;;;;2.6;1.2;;;;;;;;;;;;;
2020/05/01 06:06:16;;;;;;;2.6;1;;;;;;;;;;;;;
2020/05/01 06:08:47;;;;;;;2.9;1.1;;;;;;;;;;;;;
2020/05/01 06:11:11;;;;;;;3.6;1.4;;;;;;;;;;;;;
2020/05/01 06:13:41;;;;;;;2.2;0.9;;;;;;;;;;;;;
2020/05/01 06:16:13;;;;;;;3.7;1.1;;;;;;;;;;;;;
2020/05/01 06:20:51;;;;;;;2.5;1;;;;;;;;;;;;;
2020/05/01 06:25:54;;;;;;;3.9;1.2;;;;;;;;;;;;;
2020/05/01 06:28:04;;;;;;;2.9;0.9;;;;;;;;;;;;;
2020/05/01 06:32:53;;;;;;;3.3;1.4;;;;;;;;;;;;;
2020/05/01 06:35:21;;;;;;;2.2;1;;;;;;;;;;;;;
2020/05/01 06:42:43;;;;;;;2.2;1;;;;;;;;;;;;;
2020/05/01 06:45:19;;;;;;;3.7;1.2;;;;;;;;;;;;;
2020/05/01 06:50:30;;;;;;;3;1;;;;;;;;;;;;;
2020/05/01 06:53:56;;;;;;;3.8;1.1;;;;;;;;;;;;;
2020/05/01 06:54:52;;;;;;;2;0.9;;;;;;;;;;;;;
2020/05/01 06:59:35;;;;;;;2.6;0.9;;;;;;;;;;;;;
2020/05/01 07:02:13;;;;;;;2.2;1;;;;;;;;;;;;;
2020/05/01 07:09:12;;;;;;;2.8;0.9;;;;;;;;;;;;;
2020/05/01 07:11:36;;;;;;;2.7;1.2;;;;;;;;;;;;;
2020/05/01 07:14:59;;;;;;;3.4;1.1;;;;;;;;;;;;;
2020/05/01 07:17:07;;;;;;;2.3;0.9;;;;;;;;;;;;;
2020/05/01 07:23:44;;;;;;;2.3;0.9;;;;;;;;;;;;;
2020/05/01 07:26:57;;;;;;;4.2;1.2;;;;;;;;;;;;;
2020/05/01 07:33:37;;;;;;;3.6;1.1;;;;;;;;;;;;;
2020/05/01 07:36:22;;;;;;;3.1;1.3;;;;;;;;;;;;;
2020/05/01 07:38:17;;;;;;;3.3;1.3;;;;;;;;;;;;;
2020/05/01 07:40:54;;;;;;;3.5;1.4;;;;;;;;;;;;;
2020/05/01 07:43:33;;;;;;;5.5;1.3;;;;;;;;;;;;;
2020/05/01 07:48:00;;;;;;;4.8;1.4;;;;;;;;;;;;;
2020/05/01 07:50:47;;;;;;;4.6;1.3;;;;;;;;;;;;;
2020/05/01 07:52:43;;;;;;;3.8;1.1;;;;;;;;;;;;;
2020/05/01 07:57:45;;;;;;;6.8;1.8;;;;;;;;;;;;;
2020/05/01 08:02:25;;;;;;;5;1.7;;;;;;;;;;;;;
2020/05/01 08:04:48;;;;;;;5.6;1.9;;;;;;;;;;;;;
2020/05/01 08:09:41;;;;;;;5.3;1.7;;;;;;;;;;;;;
2020/05/01 08:12:02;;;;;;;5.1;1.9;;;;;;;;;;;;;
2020/05/01 08:15:56;;;;;;;6.6;1.8;;;;;;;;;;;;;
2020/05/01 08:19:50;;;;;;;4.5;1.4;;;;;;;;;;;;;
2020/05/01 08:24:18;;;;;;;6.2;2;;;;;;;;;;;;;
2020/05/01 08:26:52;;;;;;;5.7;1.7;;;;;;;;;;;;;
2020/05/01 08:31:23;;;;;;;6.8;1.7;;;;;;;;;;;;;
2020/05/01 08:33:54;;;;;;;5.5;1.6;;;;;;;;;;;;;
2020/05/01 08:36:25;;;;;;;5.9;2.1;;;;;;;;;;;;;
2020/05/01 08:38:42;;;;;;;7.2;2;;;;;;;;;;;;;
2020/05/01 08:41:44;;;;;;;7.1;2.1;;;;;;;;;;;;;
2020/05/01 08:45:58;;;;;;;4.8;1.7;;;;;;;;;;;;;
2020/05/01 08:50:56;;;;;;;5.6;2;;;;;;;;;;;;;
2020/05/01 08:53:08;;;;;;;5.7;1.9;;;;;;;;;;;;;
2020/05/01 09:03:09;;;;;;;5.7;1.9;;;;;;;;;;;;;
2020/05/01 09:05:15;;;;;;;5.6;1.8;;;;;;;;;;;;;
2020/05/01 09:07:50;;;;;;;5;1.7;;;;;;;;;;;;;
2020/05/01 09:10:16;;;;;;;6.7;1.7;;;;;;;;;;;;;
2020/05/01 09:12:29;;;;;;;5;1.6;;;;;;;;;;;;;
2020/05/01 09:20:18;;;;;;;5.6;1.9;;;;;;;;;;;;;
2020/05/01 09:22:27;;;;;;;4.9;1.6;;;;;;;;;;;;;
2020/05/01 09:24:39;;;;;;;6.2;2.1;;;;;;;;;;;;;
2020/05/01 09:31:59;;;;;;;4.8;1.7;;;;;;;;;;;;;
2020/05/01 09:34:20;;;;;;;5.4;1.7;;;;;;;;;;;;;
2020/05/01 09:39:23;;;;;;;6.6;2;;;;;;;;;;;;;
2020/05/01 09:41:36;;;;;;;5.1;1.8;;;;;;;;;;;;;
2020/05/01 09:43:54;;;;;;;4;1.5;;;;;;;;;;;;;
2020/05/01 09:52:23;;;;;;;6.9;1.9;;;;;;;;;;;;;
2020/05/01 09:58:30;;;;;;;5.2;1.5;;;;;;;;;;;;;
2020/05/01 10:03:20;;;;;;;4.2;1.3;;;;;;;;;;;;;
2020/05/01 10:06:01;;;;;;;5.3;1.4;;;;;;;;;;;;;
2020/05/01 10:08:08;;;;;;;3.7;1.5;;;;;;;;;;;;;
2020/05/01 10:10:30;;;;;;;5.2;1.7;;;;;;;;;;;;;
2020/05/01 10:15:42;;;;;;;4.1;1.4;;;;;;;;;;;;;
2020/05/01 10:17:55;;;;;;;5;1.5;;;;;;;;;;;;;
2020/05/01 10:20:15;;;;;;;3.8;1.2;;;;;;;;;;;;;
2020/05/01 10:23:20;;;;;;;5;1.3;;;;;;;;;;;;;
2020/05/01 10:25:08;;;;;;;4.3;1.4;;;;;;;;;;;;;
2020/05/01 10:27:47;;;;;;;4.3;1.5;;;;;;;;;;;;;
2020/05/01 10:29:52;;;;;;;3.6;1.2;;;;;;;;;;;;;
2020/05/01 10:33:17;;;;;;;4.4;1.4;;;;;;;;;;;;;
2020/05/01 10:36:02;;;;;;;3.8;1.4;;;;;;;;;;;;;
2020/05/01 10:42:04;;;;;;;4;1.4;;;;;;;;;;;;;
2020/05/01 10:49:15;;;;;;;5.2;1.4;;;;;;;;;;;;;
2020/05/01 10:51:47;;;;;;;3.2;1.2;;;;;;;;;;;;;
2020/05/01 10:54:21;;;;;;;5.7;2.3;;;;;;;;;;;;;
2020/05/01 10:58:57;;;;;;;4.5;2;;;;;;;;;;;;;
2020/05/01 11:03:57;;;;;;;6.1;1.8;;;;;;;;;;;;;
2020/05/01 11:06:32;;;;;;;4.1;1.9;;;;;;;;;;;;;
2020/05/01 11:13:28;;;;;;;3.8;1.4;;;;;;;;;;;;;
2020/05/01 11:18:26;;;;;;;3.5;1.4;;;;;;;;;;;;;
2020/05/01 11:20:53;;;;;;;3.5;1.2;;;;;;;;;;;;;
2020/05/01 11:23:13;;;;;;;3.6;1.6;;;;;;;;;;;;;
2020/05/01 11:25:51;;;;;;;3.9;1.2;;;;;;;;;;;;;
2020/05/01 11:28:11;;;;;;;2.3;1.1;;;;;;;;;;;;;
2020/05/01 11:30:44;;;;;;;3.1;1.2;;;;;;;;;;;;;
2020/05/01 11:35:58;;;;;;;3.1;1.3;;;;;;;;;;;;;
2020/05/01 11:37:42;;;;;;;7.2;1.2;;;;;;;;;;;;;
2020/05/01 11:43:51;;;;;;;3.8;1.1;;;;;;;;;;;;;
2020/05/01 11:45:15;;;;;;;2.7;0.8;;;;;;;;;;;;;
2020/05/01 11:47:40;;;;;;;2.1;1.2;;;;;;;;;;;;;
2020/05/01 11:52:10;;;;;;;3.1;1.2;;;;;;;;;;;;;
2020/05/01 11:56:53;;;;;;;2.6;1.2;;;;;;;;;;;;;
2020/05/01 11:59:17;;;;;;;3.3;1;;;;;;;;;;;;;
2020/05/01 12:04:13;;;;;;;3.2;1.1;;;;;;;;;;;;;
2020/05/01 12:06:48;;;;;;;3.3;1.2;;;;;;;;;;;;;
2020/05/01 12:09:07;;;;;;;3.1;1.1;;;;;;;;;;;;;
2020/05/01 12:11:23;;;;;;;4.1;1.2;;;;;;;;;;;;;
2020/05/01 12:13:48;;;;;;;2.7;1.2;;;;;;;;;;;;;
2020/05/01 12:16:13;;;;;;;2.2;1;;;;;;;;;;;;;
2020/05/01 12:18:45;;;;;;;2.8;1.2;;;;;;;;;;;;;
2020/05/01 12:21:03;;;;;;;2.2;0.9;;;;;;;;;;;;;
2020/05/01 12:23:29;;;;;;;2.7;0.9;;;;;;;;;;;;;
2020/05/01 12:25:54;;;;;;;2.5;0.9;;;;;;;;;;;;;
2020/05/01 12:28:20;;;;;;;2.6;0.9;;;;;;;;;;;;;
2020/05/01 12:30:45;;;;;;;2.2;1;;;;;;;;;;;;;
2020/05/01 12:33:11;;;;;;;2.6;1.1;;;;;;;;;;;;;
2020/05/01 12:35:36;;;;;;;2.3;1.3;;;;;;;;;;;;;
2020/05/01 12:38:02;;;;;;;2.3;0.9;;;;;;;;;;;;;
2020/05/01 12:40:27;;;;;;;2.4;0.9;;;;;;;;;;;;;
2020/05/01 12:42:52;;;;;;;1.9;0.8;;;;;;;;;;;;;
2020/05/01 12:45:17;;;;;;;2;0.8;;;;;;;;;;;;;
2020/05/01 12:47:42;;;;;;;1.8;0.7;;;;;;;;;;;;;
2020/05/01 12:50:07;;;;;;;1.8;0.8;;;;;;;;;;;;;
2020/05/01 12:52:32;;;;;;;1.3;0.7;;;;;;;;;;;;;
2020/05/01 12:54:58;;;;;;;1.5;0.7;;;;;;;;;;;;;
2020/05/01 12:57:23;;;;;;;2.6;1;;;;;;;;;;;;;
2020/05/01 12:59:48;;;;;;;1.7;0.9;;;;;;;;;;;;;
2020/05/01 13:04:39;;;;;;;2.2;0.8;;;;;;;;;;;;;
2020/05/01 13:07:04;;;;;;;1.5;0.8;;;;;;;;;;;;;
2020/05/01 13:09:29;;;;;;;2;0.8;;;;;;;;;;;;;
2020/05/01 13:11:54;;;;;;;1.5;0.6;;;;;;;;;;;;;
2020/05/01 13:14:19;;;;;;;1.2;0.7;;;;;;;;;;;;;
2020/05/01 13:16:44;;;;;;;1;0.6;;;;;;;;;;;;;
2020/05/01 13:19:09;;;;;;;1.3;0.6;;;;;;;;;;;;;
2020/05/01 13:21:34;;;;;;;3.9;0.6;;;;;;;;;;;;;
2020/05/01 13:24:00;;;;;;;1.4;0.7;;;;;;;;;;;;;
2020/05/01 13:26:25;;;;;;;1;0.5;;;;;;;;;;;;;
2020/05/01 13:28:50;;;;;;;1.9;0.5;;;;;;;;;;;;;
2020/05/01 13:31:15;;;;;;;1;0.6;;;;;;;;;;;;;
2020/05/01 13:33:40;;;;;;;0.7;0.5;;;;;;;;;;;;;
2020/05/01 13:36:05;;;;;;;1;0.5;;;;;;;;;;;;;
2020/05/01 13:38:30;;;;;;;1.4;0.5;;;;;;;;;;;;;
2020/05/01 13:40:55;;;;;;;1.4;0.5;;;;;;;;;;;;;
2020/05/01 13:43:20;;;;;;;0.7;0.5;;;;;;;;;;;;;
2020/05/01 13:45:45;;;;;;;1.6;0.6;;;;;;;;;;;;;
2020/05/01 13:48:10;;;;;;;1.3;0.5;;;;;;;;;;;;;
2020/05/01 13:50:35;;;;;;;4;0.6;;;;;;;;;;;;;
2020/05/01 13:53:00;;;;;;;0.6;0.5;;;;;;;;;;;;;
2020/05/01 13:55:26;;;;;;;1.2;0.5;;;;;;;;;;;;;
2020/05/01 13:57:52;;;;;;;1.4;0.7;;;;;;;;;;;;;
2020/05/01 14:00:29;;;;;;;1.2;0.5;;;;;;;;;;;;;
2020/05/01 14:02:42;;;;;;;1;0.5;;;;;;;;;;;;;
2020/05/01 14:05:07;;;;;;;1;0.6;;;;;;;;;;;;;
2020/05/01 14:09:28;;;;;;;1.7;0.7;;;;;;;13.57;63.53027;947.3017;;;;
2020/05/01 14:11:53;;;;;;;1.2;0.6;;;;;;;13.53;64.02344;947.3333;;;;
2020/05/01 14:14:18;;;;;;;2.7;0.6;;;;;;;13.52;63.99805;947.4536;;;;
2020/05/01 14:16:43;;;;;;;3.2;0.9;;;;;;;13.28;65.0166;947.4941;;;;
2020/05/01 14:19:08;;;;;;;1.3;0.8;;;;;;;12.86;72.75293;947.4753;;;;
2020/05/01 14:21:33;;;;;;;1.1;0.6;;;;;;;12.66;72.66113;947.5818;;;;
2020/05/01 14:23:59;;;;;;;1;0.8;;;;;;;12.27;77.02148;947.5661;;;;
2020/05/01 14:26:25;;;;;;;1.1;0.9;;;;;;;12.1;80.0752;947.5834;;;;
2020/05/01 14:28:51;;;;;;;3;1;;;;;;;11.93;80.73633;947.684;;;;
2020/05/01 14:31:16;;;;;;;1.3;0.7;;;;;;;11.73;81.7041;947.72;;;;
2020/05/01 14:33:41;;;;;;;1.4;0.7;;;;;;;11.76;85.02148;947.6619;;;;
2020/05/01 14:36:10;;;;;;;1.6;0.9;;;;;;;11.7;84.24707;947.6786;;;;
2020/05/01 14:38:31;;;;;;;1.9;0.9;;;;;;;11.83;84.44629;947.7235;;;;
2020/05/01 14:43:21;;;;;;;1.6;0.7;;;;;;;11.88;84.96484;947.6967;;;;
2020/05/01 14:45:47;;;;;;;2.1;0.8;;;;;;;11.8;83.63184;947.7156;;;;
2020/05/01 14:48:12;;;;;;;1.4;1.2;;;;;;;12.04;84.69629;947.7405;;;;
2020/05/01 14:50:37;;;;;;;2.2;1.1;;;;;;;12.05;83.32422;947.7126;;;;
2020/05/01 14:53:04;;;;;;;1.5;0.9;;;;;;;12.17;85.0791;947.742;;;;
2020/05/01 14:55:29;;;;;;;1;0.8;;;;;;;12.2;81.91895;947.702;;;;
2020/05/01 14:57:55;;;;;;;0.9;0.8;;;;;;;12.27;83.22656;947.722;;;;
2020/05/01 15:00:20;;;;;;;2.9;0.9;;;;;;;12.08;81.27148;947.5958;;;;
2020/05/01 15:05:13;;;;;;;1.4;0.7;;;;;;;12.25;79.56055;947.6534;;;;
2020/05/01 15:07:37;;;;;;;1.4;0.7;;;;;;;11.95;77.62305;947.533;;;;
2020/05/01 15:10:02;;;;;;;1.3;0.7;;;;;;;12.28;80.1543;947.5839;;;;
2020/05/01 15:12:27;;;;;;;0.8;0.6;;;;;;;12.36;79.16406;947.6586;;;;
2020/05/01 15:14:52;;;;;;;1.1;0.8;;;;;;;12.21;78.62793;947.6808;;;;
2020/05/01 15:17:19;;;;;;;1.2;0.7;;;;;;;12.21;81.04199;947.7201;;;;
2020/05/01 15:19:44;;;;;;;1.9;0.9;;;;;;;12.18;81.46484;947.6834;;;;
2020/05/01 15:22:10;;;;;;;1;0.8;;;;;;;12.2;81.93066;947.6806;;;;
2020/05/01 15:24:35;;;;;;;1.9;1;;;;;;;12.17;81.72852;947.7234;;;;
2020/05/01 15:27:02;;;;;;;2;1.1;;;;;;;12.3;80.99121;947.7177;;;;
2020/05/01 15:29:27;;;;;;;1.5;0.9;;;;;;;12.23;80.2373;947.7466;;;;
2020/05/01 15:31:54;;;;;;;1.1;0.9;;;;;;;12.27;79.40039;947.7173;;;;
2020/05/01 15:34:18;;;;;;;1.5;1;;;;;;;12.3;82.63086;947.7187;;;;
2020/05/01 15:36:45;;;;;;;1.8;1.3;;;;;;;12.34;83.64453;947.8881;;;;
2020/05/01 15:39:10;;;;;;;2.8;1.1;;;;;;;12.21;86.11426;947.934;;;;
2020/05/01 15:41:36;;;;;;;2.1;1.1;;;;;;;11.83;84.36621;947.925;;;;
2020/05/01 15:44:01;;;;;;;2.4;1;;;;;;;11.85;86.77051;947.7827;;;;
2020/05/01 15:46:28;;;;;;;2.6;1.1;;;;;;;11.93;85.78027;947.7575;;;;
2020/05/01 15:48:53;;;;;;;2.7;1.3;;;;;;;11.81;86.44043;947.7708;;;;
2020/05/01 15:51:20;;;;;;;3.6;1.3;;;;;;;11.81;88.43457;947.8109;;;;
2020/05/01 15:53:44;;;;;;;2.3;1.1;;;;;;;11.58;88.93164;947.8488;;;;
2020/05/01 15:56:09;;;;;;;2.1;1.5;;;;;;;11.62;90.38281;947.8583;;;;
2020/05/01 15:58:34;;;;;;;2.5;1.4;;;;;;;11.59;89.55859;947.86;;;;
2020/05/01 16:03:27;;;;;;;2.7;1.2;;;;;;;11.62;91.29395;947.7636;;;;
2020/05/01 16:05:52;;;;;;;2.3;1.1;;;;;;;11.9;92.89746;947.6809;;;;
2020/05/01 16:08:18;;;;;;;2;1.1;;;;;;;12.03;91.12305;947.8119;;;;
2020/05/01 16:10:44;;;;;;;2.3;1.3;;;;;;;11.96;90.7998;947.8527;;;;
2020/05/01 16:13:09;;;;;;;1.4;1.1;;;;;;;11.99;91.77539;947.9531;;;;
2020/05/01 16:15:34;;;;;;;2.3;1.6;;;;;;;11.87;90.11035;947.9545;;;;
2020/05/01 16:17:59;;;;;;;2.4;1.7;;;;;;;11.89;91.46484;947.9969;;;;
2020/05/01 16:20:25;;;;;;;2.7;1.4;;;;;;;11.86;91.81836;948.0836;;;;
2020/05/01 16:22:50;;;;;;;1.4;1;;;;;;;11.76;91.83008;948.1394;;;;
2020/05/01 16:25:16;;;;;;;1.4;1;;;;;;;11.76;89.41797;948.19;;;;
2020/05/01 16:27:41;;;;;;;1.8;1.2;;;;;;;11.76;90.51465;948.1027;;;;
2020/05/01 16:30:08;;;;;;;2.8;0.9;;;;;;;11.6;91.38086;948.1317;;;;
2020/05/01 16:32:33;;;;;;;1.8;0.9;;;;;;;11.51;90.11426;948.0937;;;;
2020/05/01 16:34:58;;;;;;;1.5;0.9;;;;;;;11.73;91.04004;948.0449;;;;
2020/05/01 16:37:23;;;;;;;1.2;0.9;;;;;;;11.81;92.97266;948.0076;;;;
2020/05/01 16:39:48;;;;;;;1.6;1;;;;;;;11.82;93.89648;948.0845;;;;
2020/05/01 16:42:14;;;;;;;2.2;1.4;;;;;;;11.66;94.83301;948.0547;;;;
2020/05/01 16:44:39;;;;;;;1.6;1.3;;;;;;;11.72;93.91113;948.0804;;;;
2020/05/01 16:47:04;;;;;;;2.2;1.2;;;;;;;11.63;93.75391;948.0964;;;;
2020/05/01 16:49:29;;;;;;;2.9;1.2;;;;;;;11.35;96.07813;948.0975;;;;
2020/05/01 16:51:54;;;;;;;2.2;1.1;;;;;;;11.39;95.22363;948.1576;;;;
2020/05/01 16:54:19;;;;;;;1.6;1.2;;;;;;;11.46;94.60449;948.1633;;;;
2020/05/01 16:56:44;;;;;;;1.8;1.2;;;;;;;11.44;95.46582;948.2399;;;;
2020/05/01 16:59:09;;;;;;;2;1.4;;;;;;;11.45;95.16602;948.2179;;;;
2020/05/01 17:01:34;;;;;;;2.7;1.2;;;;;;;11.38;94.71387;948.1772;;;;
2020/05/01 17:04:00;;;;;;;1.4;1.1;;;;;;;11.44;94.40527;948.2081;;;;
2020/05/01 17:06:25;;;;;;;1.7;1.3;;;;;;;11.51;95.59277;948.1818;;;;
2020/05/01 17:08:50;;;;;;;1.8;1.3;;;;;;;11.48;96.18652;948.2586;;;;
2020/05/01 17:11:17;;;;;;;2.7;1.2;;;;;;;11.45;93.55176;948.2431;;;;
2020/05/01 17:13:42;;;;;;;1.6;1.2;;;;;;;11.68;95.08984;948.2481;;;;
2020/05/01 17:16:07;;;;;;;2.1;1.4;;;;;;;11.52;95.35645;948.3002;;;;
2020/05/01 17:18:33;;;;;;;1.4;1.1;;;;;;;11.36;93.58008;948.2278;;;;
2020/05/01 17:20:58;;;;;;;1.8;1.2;;;;;;;11.49;95.41602;948.2441;;;;
2020/05/01 17:23:25;;;;;;;1.3;0.9;;;;;;;11.21;94.7002;948.2534;;;;
2020/05/01 17:25:50;;;;;;;2.4;1.1;;;;;;;11.17;93.30957;948.269;;;;
2020/05/01 17:28:15;;;;;;;1.1;1;;;;;;;11.16;94.88379;948.3614;;;;
2020/05/01 17:30:40;;;;;;;1.7;1.1;;;;;;;11.23;95.25684;948.4345;;;;
2020/05/01 17:33:05;;;;;;;1.3;1.1;;;;;;;11.18;95.00293;948.4092;;;;
2020/05/01 17:35:30;;;;;;;2.5;1.1;;;;;;;11.27;94.40234;948.3887;;;;
2020/05/01 17:37:55;;;;;;;1.6;1.1;;;;;;;11.25;93.55664;948.4117;;;;
2020/05/01 17:40:20;;;;;;;1.9;0.9;;;;;;;11.09;92.94629;948.34;;;;
2020/05/01 17:42:45;;;;;;;1.2;1.1;;;;;;;11.25;93.60156;948.4053;;;;
2020/05/01 17:45:10;;;;;;;1.3;1.1;;;;;;;11.25;93.02637;948.5031;;;;
2020/05/01 17:47:50;;;;;;;1.5;1;;;;;;;11.16;93.31641;948.5366;;;;
2020/05/01 17:50:02;;;;;;;2.8;1.5;;;;;;;11.3;95.19238;948.5346;;;;
2020/05/01 17:52:27;;;;;;;1.5;1;;;;;;;11.25;95.40137;948.4313;;;;
2020/05/01 17:54:52;;;;;;;1.8;1.2;;;;;;;11.28;94.90918;948.4885;;;;
2020/05/01 17:57:18;;;;;;;1.4;0.9;;;;;;;11;94.87402;948.5032;;;;
2020/05/01 17:59:43;;;;;;;1.5;0.9;;;;;;;10.99;95.90625;948.4984;;;;
2020/05/01 18:04:35;;;;;;;1.4;1;;;;;;;11.05;96.49707;948.4715;;;;
2020/05/01 18:07:00;;;;;;;1;0.9;;;;;;;10.99;96.81641;948.4348;;;;
2020/05/01 18:09:25;;;;;;;1.5;1;;;;;;;10.89;95.28613;948.3853;;;;
2020/05/01 18:11:51;;;;;;;1.4;0.9;;;;;;;10.93;95.26172;948.4389;;;;
2020/05/01 18:14:19;;;;;;;1.4;0.9;;;;;;;10.88;96.36426;948.5058;;;;
2020/05/01 18:16:48;;;;;;;0.8;0.8;;;;;;;10.82;95.50098;948.4838;;;;
2020/05/01 18:19:08;;;;;;;1.5;1.1;;;;;;;10.81;96.14355;948.5914;;;;
2020/05/01 18:21:32;;;;;;;1.8;1.2;;;;;;;10.74;97.01367;948.5977;;;;
2020/05/01 18:23:58;;;;;;;1.2;0.9;;;;;;;10.74;94.9873;948.6364;;;;
2020/05/01 18:28:48;;;;;;;1.5;1.2;;;;;;;10.73;95.51563;948.676;;;;
2020/05/01 18:31:14;;;;;;;1.5;0.9;;;;;;;10.62;96.6543;948.6492;;;;
2020/05/01 18:33:40;;;;;;;1.5;1;;;;;;;10.55;94.33398;948.7224;;;;
2020/05/01 18:36:06;;;;;;;1.9;0.9;;;;;;;10.45;94.14063;948.6889;;;;
2020/05/01 18:38:31;;;;;;;1.3;0.8;;;;;;;10.43;94.46094;948.7108;;;;
2020/05/01 18:40:57;;;;;;;1.7;1.2;;;;;;;10.41;94.69629;948.7986;;;;
2020/05/01 18:43:22;;;;;;;1.5;1.2;;;;;;;10.52;94.30762;948.9104;;;;
2020/05/01 18:45:49;;;;;;;2.4;1.3;;;;;;;10.63;94.12402;948.9172;;;;
2020/05/01 18:48:14;;;;;;;1.6;1;;;;;;;10.57;93.15527;948.9668;;;;
2020/05/01 18:50:39;;;;;;;2;1.1;;;;;;;10.45;95.86621;948.9934;;;;
2020/05/01 18:53:05;;;;;;;1.6;1.1;;;;;;;10.54;96.66895;949.0539;;;;
2020/05/01 18:55:30;;;;;;;2;1.2;;;;;;;10.44;97.10645;949.1178;;;;
2020/05/01 18:57:56;;;;;;;2.4;1.3;;;;;;;10.41;94.8916;949.0757;;;;
2020/05/01 19:00:23;;;;;;;2.5;1.4;;;;;;;10.44;95.16406;949.0994;;;;